Time;durP1;ratioP1;P1;durP2;ratioP2;P2;SDS_P1;SDS_P2;PMS_P1;PMS_P2;Temp;Humidity;BMP_temperature;BMP_pressure;BME280_temperature;BME280_humidity;BME280_pressure;Samples;Min_cycle;Max_cycle;Signal;HPM_P1;HPM_P2
2022/02/23 00:02:21;;;;;;;23.10;4.50;;;;;;;4.55;100.00;100466.53;5017509;28;20025;-85
2022/02/23 00:04:46;;;;;;;39.43;7.47;;;;;;;4.56;100.00;100474.31;5017364;28;20039;-85
2022/02/23 00:07:11;;;;;;;33.73;5.57;;;;;;;4.58;100.00;100453.03;5017247;28;20604;-85
2022/02/23 00:09:37;;;;;;;15.20;4.13;;;;;;;4.47;100.00;100429.31;5034860;28;20401;-85
2022/02/23 00:12:02;;;;;;;21.57;3.17;;;;;;;4.40;100.00;100447.50;5034647;28;20112;-83
2022/02/23 00:14:28;;;;;;;16.85;2.85;;;;;;;4.29;100.00;100424.63;5016926;28;20116;-85
2022/02/23 00:16:53;;;;;;;15.57;2.67;;;;;;;4.15;100.00;100399.38;5017012;28;20034;-84
2022/02/23 00:19:18;;;;;;;13.30;2.23;;;;;;;4.05;100.00;100401.13;5016952;28;20033;-85
2022/02/23 00:21:44;;;;;;;20.73;3.17;;;;;;;4.13;100.00;100403.13;5017092;28;20029;-85
2022/02/23 00:24:09;;;;;;;20.17;2.70;;;;;;;4.08;100.00;100390.28;5016838;28;20041;-86
2022/02/23 00:26:35;;;;;;;22.47;3.10;;;;;;;4.04;100.00;100404.72;5016781;28;20307;-85
2022/02/23 00:29:02;;;;;;;34.43;5.87;;;;;;;3.88;100.00;100393.75;5016696;28;20687;-85
2022/02/23 00:31:27;;;;;;;16.30;3.30;;;;;;;3.93;100.00;100426.75;5000526;28;20112;-85
2022/02/23 00:33:53;;;;;;;25.60;5.40;;;;;;;4.00;100.00;100453.47;5017048;28;20087;-85
2022/02/23 00:36:18;;;;;;;29.60;4.80;;;;;;;3.93;100.00;100445.25;5033322;28;20119;-86
2022/02/23 00:38:44;;;;;;;15.30;3.03;;;;;;;3.93;100.00;100454.97;5016640;28;20032;-84
2022/02/23 00:41:09;;;;;;;23.57;4.53;;;;;;;3.93;100.00;100454.97;5016477;28;20375;-85
2022/02/23 00:43:34;;;;;;;17.83;2.80;;;;;;;3.95;100.00;100463.59;5016985;28;20091;-84
2022/02/23 00:46:00;;;;;;;20.93;3.67;;;;;;;3.99;100.00;100470.31;5016489;28;20061;-84
2022/02/23 00:48:25;;;;;;;16.30;2.33;;;;;;;3.94;100.00;100468.03;5016422;28;20425;-85
2022/02/23 00:50:52;;;;;;;22.23;3.87;;;;;;;3.89;100.00;100459.66;5016323;28;20025;-84
2022/02/23 00:53:17;;;;;;;20.30;4.18;;;;;;;3.84;100.00;100471.56;5000216;28;20083;-84
2022/02/23 00:55:42;;;;;;;13.93;4.60;;;;;;;3.82;100.00;100474.34;5015565;28;20029;-85
2022/02/23 00:58:08;;;;;;;23.73;3.17;;;;;;;3.82;100.00;100508.69;5000092;28;20036;-85
2022/02/23 01:00:33;;;;;;;17.47;3.87;;;;;;;3.76;100.00;100506.53;5016458;28;20029;-83
2022/02/23 01:02:58;;;;;;;17.60;2.93;;;;;;;3.68;100.00;100509.78;5016110;28;20129;-85
2022/02/23 01:05:24;;;;;;;20.27;3.17;;;;;;;3.67;100.00;100523.09;5016347;28;20025;-86
2022/02/23 01:07:49;;;;;;;22.90;4.27;;;;;;;3.69;100.00;100547.59;5015986;28;20025;-84
2022/02/23 01:10:14;;;;;;;16.83;4.30;;;;;;;3.65;100.00;100546.16;5015744;28;20649;-84
2022/02/23 01:12:40;;;;;;;22.27;4.72;;;;;;;3.63;100.00;100554.22;5015974;28;20496;-85
2022/02/23 01:15:06;;;;;;;25.23;4.97;;;;;;;3.74;100.00;100577.09;5015848;28;20030;-84
2022/02/23 01:17:32;;;;;;;25.92;5.25;;;;;;;3.67;100.00;100587.31;4999653;28;20037;-84
2022/02/23 01:19:58;;;;;;;21.40;3.40;;;;;;;3.65;100.00;100586.59;5015710;28;20075;-85
2022/02/23 01:22:24;;;;;;;33.63;4.32;;;;;;;3.70;100.00;100600.28;5032372;28;20111;-85
2022/02/23 01:24:49;;;;;;;22.30;3.92;;;;;;;3.61;100.00;100598.38;5032123;28;20084;-84
2022/02/23 01:27:15;;;;;;;19.33;3.60;;;;;;;3.68;100.00;100622.50;5015756;28;20497;-84
2022/02/23 01:29:40;;;;;;;30.10;4.53;;;;;;;3.74;100.00;100620.19;5015273;28;20025;-84
2022/02/23 01:32:06;;;;;;;36.43;4.53;;;;;;;3.90;100.00;100642.75;5015380;28;20481;-85
2022/02/23 01:34:31;;;;;;;23.15;3.40;;;;;;;4.08;100.00;100651.84;5015599;28;20111;-84
2022/02/23 01:36:56;;;;;;;31.47;5.47;;;;;;;4.00;100.00;100656.88;5015516;28;20091;-84
2022/02/23 01:39:22;;;;;;;39.13;6.47;;;;;;;4.06;100.00;100651.13;5015129;28;20021;-85
2022/02/23 01:41:47;;;;;;;28.67;3.60;;;;;;;4.09;100.00;100650.88;5015178;28;20571;-84
2022/02/23 01:44:12;;;;;;;38.23;5.43;;;;;;;4.15;100.00;100670.69;4999006;28;20029;-83
2022/02/23 01:46:38;;;;;;;36.97;6.43;;;;;;;4.14;100.00;100679.56;4999295;28;20072;-84
2022/02/23 01:49:03;;;;;;;37.47;5.40;;;;;;;4.13;100.00;100672.63;5014884;28;20292;-84
2022/02/23 01:51:30;;;;;;;39.37;5.27;;;;;;;4.15;100.00;100687.38;5015257;28;20045;-84
2022/02/23 01:53:55;;;;;;;44.13;6.18;;;;;;;4.07;100.00;100684.50;5016323;28;20056;-84
2022/02/23 01:56:21;;;;;;;41.95;7.40;;;;;;;4.09;100.00;100693.16;5031662;28;20036;-84
2022/02/23 01:58:46;;;;;;;38.57;6.47;;;;;;;4.10;100.00;100694.84;5014906;28;20458;-84
2022/02/23 02:01:12;;;;;;;36.92;5.47;;;;;;;4.16;100.00;100704.91;5032334;28;20513;-84
2022/02/23 02:03:38;;;;;;;34.75;6.40;;;;;;;4.08;100.00;100699.41;5014851;28;20390;-84
2022/02/23 02:06:03;;;;;;;49.17;10.68;;;;;;;4.09;100.00;100714.28;4998269;28;20490;-84
2022/02/23 02:08:28;;;;;;;39.17;6.73;;;;;;;4.06;100.00;100719.00;5014690;28;20110;-82
2022/02/23 02:10:54;;;;;;;57.13;8.90;;;;;;;4.04;100.00;100716.47;5014302;28;20044;-84
2022/02/23 02:13:19;;;;;;;47.28;8.35;;;;;;;4.12;100.00;100723.75;4998113;28;20048;-83
2022/02/23 02:15:44;;;;;;;30.73;5.97;;;;;;;4.11;100.00;100736.16;5031393;28;20044;-84
2022/02/23 02:18:10;;;;;;;38.00;5.20;;;;;;;4.07;100.00;100732.06;5014677;28;20040;-84
2022/02/23 02:20:36;;;;;;;29.83;5.88;;;;;;;4.06;100.00;100730.38;5013981;28;20036;-85
2022/02/23 02:23:01;;;;;;;33.77;6.10;;;;;;;4.02;100.00;100747.44;5030724;28;20036;-84
2022/02/23 02:25:26;;;;;;;43.80;8.17;;;;;;;4.07;100.00;100753.19;5014303;28;20427;-85
2022/02/23 02:27:52;;;;;;;32.75;5.88;;;;;;;4.13;100.00;100762.47;5014312;28;20317;-84
2022/02/23 02:30:17;;;;;;;45.08;6.57;;;;;;;4.16;100.00;100760.41;5030540;28;20038;-85
2022/02/23 02:32:43;;;;;;;37.03;6.40;;;;;;;4.22;100.00;100773.13;5014351;28;20367;-84
2022/02/23 02:35:09;;;;;;;49.97;8.43;;;;;;;4.22;100.00;100773.13;5014166;28;20040;-84
2022/02/23 02:37:34;;;;;;;39.60;6.53;;;;;;;4.20;100.00;100761.84;4997279;28;20045;-84
2022/02/23 02:40:00;;;;;;;40.97;6.37;;;;;;;4.23;100.00;100766.88;4997316;28;20118;-84
2022/02/23 02:42:25;;;;;;;31.53;4.57;;;;;;;4.28;100.00;100778.91;5014038;28;20752;-84
2022/02/23 02:44:51;;;;;;;39.40;5.63;;;;;;;4.33;100.00;100784.66;5014066;28;20040;-84
2022/02/23 02:47:30;;;;;;;41.15;7.80;;;;;;;4.33;100.00;100774.09;5013958;28;20069;-83
2022/02/23 02:49:56;;;;;;;37.40;5.97;;;;;;;4.32;100.00;100778.53;4997265;28;20053;-84
2022/02/23 02:52:22;;;;;;;37.93;8.77;;;;;;;4.37;100.00;100786.09;5014205;28;20021;-84
2022/02/23 02:54:47;;;;;;;41.75;5.93;;;;;;;4.38;100.00;100785.16;4997740;28;20103;-84
2022/02/23 02:57:13;;;;;;;39.73;7.00;;;;;;;4.39;100.00;100798.25;5031246;28;20022;-82
2022/02/23 02:59:38;;;;;;;33.00;5.57;;;;;;;4.39;100.00;100790.31;4997358;28;20183;-84
2022/02/23 03:02:04;;;;;;;39.45;5.95;;;;;;;4.52;100.00;100792.84;5013918;28;20021;-84
2022/02/23 03:04:29;;;;;;;30.33;6.72;;;;;;;4.49;100.00;100789.56;4997584;28;20042;-85
2022/02/23 03:06:54;;;;;;;31.73;6.73;;;;;;;4.44;100.00;100787.31;4997338;28;20021;-85
2022/02/23 03:09:20;;;;;;;36.07;6.07;;;;;;;4.45;100.00;100783.72;4997115;28;20030;-84
2022/02/23 03:11:45;;;;;;;40.87;7.07;;;;;;;4.39;100.00;100787.66;4997559;28;20432;-84
2022/02/23 03:14:11;;;;;;;42.17;10.07;;;;;;;4.36;100.00;100795.00;5013657;28;20049;-83
2022/02/23 03:16:36;;;;;;;32.47;6.67;;;;;;;4.38;100.00;100803.66;5013792;28;20037;-85
2022/02/23 03:19:02;;;;;;;31.95;5.00;;;;;;;4.39;100.00;100795.59;5014224;28;20067;-84
2022/02/23 03:21:27;;;;;;;35.75;6.70;;;;;;;4.34;100.00;100803.06;5001348;28;20052;-84
2022/02/23 03:23:53;;;;;;;31.87;6.10;;;;;;;4.35;100.00;100811.81;5017401;28;20136;-85
2022/02/23 03:26:18;;;;;;;36.20;6.20;;;;;;;4.32;100.00;100814.72;5017428;28;20033;-85
2022/02/23 03:28:44;;;;;;;41.77;6.57;;;;;;;4.31;100.00;100823.59;5046812;23;20311;-74
2022/02/23 03:31:10;;;;;;;30.58;7.20;;;;;;;4.31;100.00;100818.28;5059497;28;20033;-74
2022/02/23 03:33:42;;;;;;;;;;;;;;;4.25;100.00;100814.34;5070091;28;20048;-74
2022/02/23 03:36:15;;;;;;;36.67;5.85;;;;;;;4.28;100.00;100821.19;5054213;28;20177;-75
2022/02/23 03:38:41;;;;;;;45.25;6.35;;;;;;;4.19;100.00;100822.72;5069332;28;20083;-74
2022/02/23 03:41:07;;;;;;;42.78;6.55;;;;;;;4.20;100.00;100817.34;5088996;22;20097;-89
2022/02/23 03:43:32;;;;;;;31.38;5.05;;;;;;;4.21;100.00;100826.97;5058289;28;20041;-89
2022/02/23 03:45:58;;;;;;;37.23;8.63;;;;;;;4.27;100.00;100832.72;5074161;28;20035;-89
2022/02/23 03:48:24;;;;;;;34.07;5.33;;;;;;;4.33;100.00;100832.22;5090788;28;20290;-89
2022/02/23 03:50:49;;;;;;;29.58;4.60;;;;;;;4.37;100.00;100831.88;5057676;28;20036;-89
2022/02/23 03:53:18;;;;;;;27.30;4.73;;;;;;;4.37;100.00;100833.69;5073645;28;20090;-90
2022/02/23 03:55:43;;;;;;;31.15;5.13;;;;;;;4.29;100.00;100820.25;5056930;28;20065;-89
2022/02/23 03:58:09;;;;;;;25.10;5.77;;;;;;;4.43;100.00;100822.66;5074423;28;20033;-89
2022/02/23 04:00:35;;;;;;;50.78;7.10;;;;;;;4.42;100.00;100831.50;5074764;28;20559;-89
2022/02/23 04:03:01;;;;;;;29.60;5.72;;;;;;;4.46;100.00;100832.13;5074418;28;20123;-88
2022/02/23 04:05:26;;;;;;;33.83;5.35;;;;;;;4.41;100.00;100819.28;5074051;28;20029;-89
2022/02/23 04:07:51;;;;;;;29.10;6.00;;;;;;;4.38;100.00;100815.06;5077072;28;20037;-89
2022/02/23 04:10:19;;;;;;;32.08;7.75;;;;;;;4.32;100.00;100818.19;5086681;28;20035;-90
2022/02/23 04:12:46;;;;;;;32.03;4.97;;;;;;;4.40;100.00;100844.88;5078720;28;20127;-90
2022/02/23 04:15:12;;;;;;;22.27;4.57;;;;;;;4.29;100.00;100836.09;5095792;28;20092;-88
2022/02/23 04:17:37;;;;;;;50.13;6.10;;;;;;;4.23;100.00;100834.75;5076739;28;20037;-89
2022/02/23 04:20:04;;;;;;;30.63;4.03;;;;;;;4.29;100.00;100851.97;5076486;28;20728;-89
2022/02/23 04:22:29;;;;;;;;;;;;;;;4.39;100.00;100874.91;5073779;28;20068;-89
2022/02/23 04:24:55;;;;;;;44.25;5.57;;;;;;;4.32;100.00;100870.22;5056941;28;19951;-89
2022/02/23 04:27:20;;;;;;;26.73;3.87;;;;;;;4.28;100.00;100879.34;5074621;28;20037;-89
2022/02/23 04:29:46;;;;;;;31.03;5.97;;;;;;;4.26;100.00;100873.31;5074376;28;20025;-89
2022/02/23 04:32:11;;;;;;;;;;;;;;;4.27;100.00;100893.53;5073720;28;20033;-89
2022/02/23 04:34:37;;;;;;;26.13;6.05;;;;;;;4.20;100.00;100893.97;5074573;28;19920;-89
2022/02/23 04:37:02;;;;;;;29.07;4.43;;;;;;;4.20;100.00;100886.06;5074460;28;20041;-89
2022/02/23 04:39:30;;;;;;;30.95;5.13;;;;;;;4.14;100.00;100880.41;5074963;28;20024;-89
2022/02/23 04:41:56;;;;;;;30.70;4.93;;;;;;;4.17;100.00;100896.88;5090482;28;20048;-89
2022/02/23 04:44:21;;;;;;;40.73;9.63;;;;;;;4.11;100.00;100901.78;5075126;28;20035;-89
2022/02/23 04:46:46;;;;;;;21.53;4.33;;;;;;;4.10;100.00;100900.94;5075536;28;20032;-89
2022/02/23 04:49:12;;;;;;;33.33;5.57;;;;;;;4.08;100.00;100902.84;5058467;28;20115;-89
2022/02/23 04:51:38;;;;;;;37.53;4.63;;;;;;;4.04;100.00;100903.22;5074944;28;20362;-89
2022/02/23 04:54:04;;;;;;;25.65;5.20;;;;;;;3.93;100.00;100906.66;5074911;28;20028;-89
2022/02/23 04:56:29;;;;;;;32.90;4.25;;;;;;;3.94;100.00;100921.56;5073283;28;20594;-89
2022/02/23 04:58:55;;;;;;;32.30;5.32;;;;;;;3.95;100.00;100928.50;5072298;28;20115;-89
2022/02/23 05:01:21;;;;;;;30.50;4.68;;;;;;;3.98;100.00;100938.84;5073848;28;20068;-89
2022/02/23 05:03:46;;;;;;;39.58;6.50;;;;;;;4.00;100.00;100952.78;5074192;28;20075;-89
2022/02/23 05:06:12;;;;;;;24.58;4.68;;;;;;;4.10;100.00;100958.25;5073080;28;20054;-89
2022/02/23 05:08:38;;;;;;;22.20;5.80;;;;;;;4.05;100.00;100940.09;5056136;28;20115;-90
2022/02/23 05:11:03;;;;;;;28.67;4.30;;;;;;;4.12;100.00;100951.00;5073352;28;20327;-89
2022/02/23 05:13:31;;;;;;;22.58;3.63;;;;;;;4.16;100.00;100957.75;5072902;28;20029;-89
2022/02/23 05:15:59;;;;;;;29.20;5.20;;;;;;;4.15;100.00;100959.56;5072622;28;20037;-89
2022/02/23 05:18:29;;;;;;;27.08;3.92;;;;;;;4.13;100.00;100958.84;5072577;28;20052;-89
2022/02/23 05:20:59;;;;;;;24.00;4.07;;;;;;;4.17;100.00;100957.66;5073381;28;20036;-89
2022/02/23 05:23:26;;;;;;;21.85;3.72;;;;;;;4.31;100.00;100953.09;5073248;28;20051;-90
2022/02/23 05:25:51;;;;;;;27.10;4.30;;;;;;;4.33;100.00;100952.06;5074070;28;20032;-90
2022/02/23 05:28:18;;;;;;;25.38;4.53;;;;;;;4.24;100.00;100958.03;5057432;28;20480;-90
2022/02/23 05:30:43;;;;;;;;;;;;;;;4.33;100.00;100978.47;5074643;28;20123;-89
2022/02/23 05:33:08;;;;;;;23.17;4.53;;;;;;;4.36;100.00;100969.47;5074684;28;19973;-90
2022/02/23 05:35:34;;;;;;;27.93;4.53;;;;;;;4.23;100.00;100964.25;5075487;28;20028;-90
2022/02/23 05:38:00;;;;;;;22.02;3.47;;;;;;;4.28;100.00;100977.13;5077372;28;20041;-90
2022/02/23 05:40:25;;;;;;;30.70;3.37;;;;;;;4.29;100.00;100994.69;5060231;28;20036;-90
2022/02/23 05:42:51;;;;;;;22.08;4.18;;;;;;;4.29;100.00;100995.53;5077336;28;20365;-89
2022/02/23 05:45:16;;;;;;;48.97;6.55;;;;;;;4.13;100.00;100990.53;5081580;28;20036;-91
2022/02/23 05:47:42;;;;;;;33.70;7.07;;;;;;;4.15;100.00;101011.59;5097108;28;20028;-89
2022/02/23 05:50:08;;;;;;;22.90;4.43;;;;;;;4.29;100.00;101029.88;5073262;28;20054;-89
2022/02/23 05:52:34;;;;;;;33.17;8.07;;;;;;;4.11;100.00;101003.03;5073819;28;20060;-90
2022/02/23 05:54:59;;;;;;;23.77;4.97;;;;;;;4.27;100.00;101028.31;5072427;28;20032;-90
2022/02/23 05:57:25;;;;;;;27.77;5.50;;;;;;;4.18;100.00;101028.03;5072157;28;20079;-89
2022/02/23 05:59:50;;;;;;;42.87;4.43;;;;;;;4.13;100.00;101032.81;5072278;28;20769;-89
2022/02/23 06:02:16;;;;;;;27.85;4.57;;;;;;;4.09;100.00;101041.94;5074226;28;20041;-89
2022/02/23 06:04:42;;;;;;;16.35;3.97;;;;;;;4.17;100.00;101044.84;5075160;28;20038;-87
2022/02/23 06:07:07;;;;;;;27.70;4.35;;;;;;;4.11;100.00;101049.75;5078413;28;20044;-86
2022/02/23 06:09:33;;;;;;;35.92;6.85;;;;;;;4.16;100.00;101064.28;5097030;28;20021;-86
2022/02/23 06:12:00;;;;;;;22.73;3.53;;;;;;;4.11;100.00;101055.03;5090034;28;20040;-87
2022/02/23 06:14:25;;;;;;;41.97;5.82;;;;;;;4.07;100.00;101064.13;5071737;28;20032;-87
2022/02/23 06:16:51;;;;;;;25.90;5.65;;;;;;;4.02;100.00;101073.25;5071879;28;20043;-86
2022/02/23 06:19:16;;;;;;;42.13;6.13;;;;;;;3.97;100.00;101079.81;5071422;28;20024;-87
2022/02/23 06:21:42;;;;;;;28.43;6.53;;;;;;;3.95;100.00;101082.56;5088500;28;20328;-86
2022/02/23 06:24:08;;;;;;;30.30;3.50;;;;;;;3.91;100.00;101101.38;5088064;28;20115;-87
2022/02/23 06:26:34;;;;;;;30.73;4.75;;;;;;;3.96;100.00;101107.22;5071020;28;20072;-88
2022/02/23 06:28:59;;;;;;;31.27;6.07;;;;;;;3.99;100.00;101114.91;5071019;28;20109;-89
2022/02/23 06:31:25;;;;;;;36.70;4.35;;;;;;;4.00;100.00;101137.72;5070973;28;20663;-89
2022/02/23 06:33:50;;;;;;;22.30;4.80;;;;;;;4.05;100.00;101145.31;5071146;28;20025;-89
2022/02/23 06:36:18;;;;;;;22.43;4.67;;;;;;;4.08;100.00;101155.69;5071383;28;20519;-89
2022/02/23 06:38:45;;;;;;;30.95;5.57;;;;;;;4.05;100.00;101153.25;5071530;28;20051;-89
2022/02/23 06:41:16;;;;;;;31.10;5.30;;;;;;;4.04;100.00;101152.41;5070879;28;20032;-89
2022/02/23 06:43:44;;;;;;;23.15;3.80;;;;;;;4.10;100.00;101165.19;5071019;28;20032;-89
2022/02/23 06:46:10;;;;;;;29.83;4.40;;;;;;;4.13;100.00;101150.91;5070773;28;20111;-89
2022/02/23 06:48:36;;;;;;;29.88;6.18;;;;;;;4.18;100.00;101146.97;5053110;28;20036;-88
2022/02/23 06:51:02;;;;;;;28.45;6.53;;;;;;;4.21;100.00;101165.25;5070716;28;20029;-89
2022/02/23 06:53:28;;;;;;;;;;;;;;;4.15;100.00;101160.41;5070845;28;20043;-88
2022/02/23 06:55:53;;;;;;;29.90;5.47;;;;;;;4.18;100.00;101160.19;5054518;28;19908;-88
2022/02/23 06:58:20;;;;;;;35.47;5.18;;;;;;;4.17;100.00;101145.28;5070860;28;20063;-89
2022/02/23 07:00:45;;;;;;;38.22;5.15;;;;;;;4.21;100.00;101162.63;5053793;28;20032;-89
2022/02/23 07:03:11;;;;;;;27.75;5.22;;;;;;;4.21;100.00;101175.84;5070717;28;20029;-89
2022/02/23 07:05:36;;;;;;;25.23;4.82;;;;;;;4.23;100.00;101186.28;5070797;28;20047;-89
2022/02/23 07:08:05;;;;;;;28.08;4.88;;;;;;;4.27;100.00;101184.25;5070791;28;20132;-89
2022/02/23 07:10:31;;;;;;;28.95;5.13;;;;;;;4.32;100.00;101190.91;5087670;28;20110;-89
2022/02/23 07:12:58;;;;;;;30.45;4.72;;;;;;;4.47;100.00;101203.94;5070783;28;20032;-88
2022/02/23 07:15:25;;;;;;;34.97;6.57;;;;;;;4.54;100.00;101206.06;5071480;28;20032;-89
2022/02/23 07:17:51;;;;;;;33.15;7.07;;;;;;;4.58;100.00;101186.34;5053915;28;20590;-88
2022/02/23 07:20:17;;;;;;;31.17;6.15;;;;;;;4.52;100.00;101185.94;5070270;28;20062;-89
2022/02/23 07:22:43;;;;;;;22.92;5.18;;;;;;;4.61;100.00;101190.56;5070670;28;20396;-88
2022/02/23 07:25:10;;;;;;;37.10;5.75;;;;;;;4.60;100.00;101196.81;5070610;28;20024;-89
2022/02/23 07:27:36;;;;;;;46.92;9.50;;;;;;;4.63;100.00;101189.50;5087328;28;20090;-89
2022/02/23 07:30:08;;;;;;;40.35;6.97;;;;;;;4.64;100.00;101191.19;5070315;28;20411;-89
2022/02/23 07:32:34;;;;;;;37.25;6.03;;;;;;;4.73;100.00;101199.38;5087813;28;20405;-89
2022/02/23 07:35:00;;;;;;;40.92;5.70;;;;;;;4.78;100.00;101190.16;5070687;28;20107;-88
2022/02/23 07:37:26;;;;;;;30.17;4.28;;;;;;;4.79;100.00;101185.72;5053988;28;20036;-89
2022/02/23 07:40:18;;;;;;;33.65;5.70;;;;;;;4.75;100.00;101198.34;5053147;28;20017;-89
2022/02/23 07:42:44;;;;;;;31.67;6.00;;;;;;;4.80;100.00;101201.50;5087157;28;20029;-89
2022/02/23 07:45:10;;;;;;;46.55;7.30;;;;;;;4.94;100.00;101202.25;5070305;28;20027;-89
2022/02/23 07:47:36;;;;;;;31.27;5.15;;;;;;;5.13;100.00;101201.69;5070551;28;20139;-90
2022/02/23 07:50:08;;;;;;;37.47;5.80;;;;;;;5.18;100.00;101199.56;5069854;28;20397;-89
2022/02/23 07:52:34;;;;;;;39.53;6.95;;;;;;;5.13;100.00;101183.16;5070782;28;20040;-88
2022/02/23 07:54:59;;;;;;;28.65;5.10;;;;;;;5.07;100.00;101187.97;5070739;28;20538;-89
2022/02/23 07:57:25;;;;;;;36.27;5.10;;;;;;;5.53;100.00;101220.69;5053876;28;20036;-89
2022/02/23 07:59:50;;;;;;;43.13;5.83;;;;;;;5.47;100.00;101186.72;5071756;28;20079;-88
2022/02/23 08:02:17;;;;;;;43.47;5.73;;;;;;;5.56;99.38;101182.53;5070626;28;20036;-88
2022/02/23 08:04:43;;;;;;;37.13;7.18;;;;;;;5.60;98.51;101189.28;5087503;28;20024;-89
2022/02/23 08:07:09;;;;;;;33.38;4.28;;;;;;;6.13;97.87;101205.44;5074225;28;20036;-88
2022/02/23 08:09:34;;;;;;;33.00;7.37;;;;;;;6.48;95.57;101185.84;5081375;28;20035;-89
2022/02/23 08:12:01;;;;;;;25.73;5.33;;;;;;;6.57;93.82;101147.94;5084236;28;20436;-90
2022/02/23 08:14:28;;;;;;;31.08;5.70;;;;;;;6.44;92.26;101107.47;5087166;28;20028;-89
2022/02/23 08:19:38;;;;;;;37.08;7.20;;;;;;;6.25;91.73;101102.84;5094067;28;20396;-89
2022/02/23 08:22:10;;;;;;;25.05;6.30;;;;;;;6.14;91.69;101119.63;5075241;28;20020;-89
2022/02/23 08:24:40;;;;;;;40.35;6.05;;;;;;;6.95;91.02;101165.13;5095506;28;20040;-89
2022/02/23 08:27:08;;;;;;;33.95;6.60;;;;;;;6.66;88.97;101085.31;5075355;28;20039;-89
2022/02/23 08:29:34;;;;;;;33.75;6.40;;;;;;;6.66;88.45;101072.06;5090299;28;20370;-89
2022/02/23 08:32:01;;;;;;;29.73;5.50;;;;;;;6.46;87.83;101057.78;5073559;28;20028;-90
2022/02/23 08:34:27;;;;;;;32.95;5.95;;;;;;;7.16;87.93;101118.19;5090399;28;20182;-89
2022/02/23 08:36:53;;;;;;;32.63;5.88;;;;;;;7.15;86.36;101073.19;5073579;28;20488;-89
2022/02/23 08:39:20;;;;;;;30.60;5.47;;;;;;;6.89;86.35;101046.22;5073465;28;20082;-90
2022/02/23 08:41:45;;;;;;;;;;;;;;;6.34;86.81;101039.31;5057580;28;20032;-90
2022/02/23 08:44:11;;;;;;;;;;;;;;;6.34;88.18;101110.91;5074352;28;19943;-89
2022/02/23 08:46:39;;;;;;;26.90;4.28;;;;;;;6.15;88.60;101115.19;5057026;28;19908;-89
2022/02/23 08:49:09;;;;;;;35.17;4.70;;;;;;;6.20;89.18;101158.06;5074201;28;20131;-89
2022/02/23 08:51:36;;;;;;;28.92;5.47;;;;;;;6.25;89.63;101169.13;5073398;28;20037;-89
2022/02/23 08:54:03;;;;;;;38.17;5.18;;;;;;;6.34;90.25;101203.72;5073030;28;20052;-89
2022/02/23 08:56:29;;;;;;;40.58;7.55;;;;;;;6.60;90.11;101211.34;5072934;28;20093;-89
2022/02/23 08:58:55;;;;;;;32.10;5.80;;;;;;;6.51;89.59;101177.66;5072841;28;20016;-89
2022/02/23 09:01:21;;;;;;;;;;;;;;;6.62;89.47;101193.50;5073468;28;20047;-89
2022/02/23 09:03:46;;;;;;;35.70;4.78;;;;;;;6.65;89.46;101187.97;5056294;28;20014;-89
2022/02/23 09:06:12;;;;;;;27.03;5.63;;;;;;;6.55;89.54;101187.00;5072689;28;20162;-89
2022/02/23 09:08:37;;;;;;;33.97;5.78;;;;;;;6.43;89.73;101188.03;5089554;28;20055;-89
2022/02/23 09:11:04;;;;;;;29.47;4.90;;;;;;;6.31;89.97;101195.16;5055985;28;20047;-89
2022/02/23 09:13:29;;;;;;;38.70;6.60;;;;;;;6.18;90.46;101207.72;5089894;28;20473;-89
2022/02/23 09:15:55;;;;;;;29.17;5.97;;;;;;;6.16;91.05;101230.84;5089274;28;20098;-89
2022/02/23 09:18:20;;;;;;;37.97;7.88;;;;;;;6.16;91.61;101242.31;5072107;28;20079;-89
2022/02/23 09:20:46;;;;;;;45.77;7.03;;;;;;;6.22;92.05;101263.03;5073428;28;20032;-89
2022/02/23 09:23:11;;;;;;;34.27;5.97;;;;;;;6.18;91.87;101258.94;5073441;28;20278;-89
2022/02/23 09:25:37;;;;;;;42.67;6.93;;;;;;;6.12;92.33;101267.38;5073612;28;20493;-89
2022/02/23 09:30:36;;;;;;;28.48;5.43;;;;;;;6.19;92.15;101271.22;4990351;28;20046;-77
2022/02/23 09:33:01;;;;;;;;;;;;;;;6.25;92.58;101289.31;4976820;28;20022;-77
2022/02/23 09:35:27;;;;;;;32.58;4.15;;;;;;;6.20;92.33;101277.38;4976116;28;19921;-77
2022/02/23 09:37:56;;;;;;;31.37;5.27;;;;;;;6.28;92.36;101282.94;4992334;28;20563;-77
2022/02/23 09:40:21;;;;;;;35.17;5.90;;;;;;;6.44;92.33;101290.47;4992975;28;20273;-77
2022/02/23 09:42:47;;;;;;;32.60;5.32;;;;;;;6.72;91.78;101297.09;5003407;23;20095;-74
2022/02/23 09:45:13;;;;;;;33.70;5.97;;;;;;;6.66;90.90;101263.94;5014437;28;20040;-74
2022/02/23 09:47:39;;;;;;;32.58;4.88;;;;;;;6.70;90.36;101253.91;5014196;28;20040;-74
2022/02/23 09:50:08;;;;;;;34.95;5.55;;;;;;;6.71;90.50;101253.78;5031456;28;20037;-74
2022/02/23 09:52:34;;;;;;;31.67;7.82;;;;;;;6.72;89.99;101246.69;5031682;28;20028;-74
2022/02/23 09:55:01;;;;;;;28.73;5.15;;;;;;;6.74;89.43;101229.66;4997651;28;20030;-74
2022/02/23 09:57:30;;;;;;;21.60;4.88;;;;;;;6.78;89.75;101247.97;5030692;28;20108;-74
2022/02/23 09:59:57;;;;;;;31.70;5.25;;;;;;;6.81;89.52;101245.06;5013877;28;20522;-74
2022/02/23 10:02:23;;;;;;;27.50;4.85;;;;;;;7.19;89.01;101261.34;5031610;28;20021;-74
2022/02/23 10:04:49;;;;;;;19.48;4.10;;;;;;;6.93;87.98;101206.88;5031591;28;20099;-74
2022/02/23 10:07:15;;;;;;;36.10;5.28;;;;;;;6.98;87.50;101199.41;5030244;28;20030;-74
2022/02/23 10:09:44;;;;;;;24.25;6.43;;;;;;;7.01;87.25;101193.84;5013688;28;20044;-74
2022/02/23 10:12:19;;;;;;;40.90;5.20;;;;;;;7.21;87.06;101202.78;4997313;28;20389;-74
2022/02/23 10:14:45;;;;;;;38.63;6.28;;;;;;;7.33;85.98;101188.47;4997433;28;20033;-74
2022/02/23 10:17:11;;;;;;;23.25;4.88;;;;;;;7.22;84.91;101132.75;5031377;28;20037;-74
2022/02/23 10:19:47;;;;;;;29.67;4.90;;;;;;;7.36;84.36;101142.19;5031144;28;20025;-74
2022/02/23 10:22:12;;;;;;;27.10;5.85;;;;;;;7.29;83.81;101117.13;5013578;28;20033;-74
2022/02/23 10:24:38;;;;;;;29.90;3.97;;;;;;;7.09;83.38;101093.13;5031243;28;20104;-75
2022/02/23 10:27:09;;;;;;;28.52;4.00;;;;;;;7.14;84.34;101145.84;4997070;28;20033;-74
2022/02/23 10:29:54;;;;;;;29.38;5.68;;;;;;;7.48;83.95;101180.16;5028711;28;20037;-74
2022/02/23 10:32:22;;;;;;;23.88;4.00;;;;;;;7.59;83.63;101178.25;5029701;28;20041;-74
2022/02/23 10:35:06;;;;;;;24.25;5.20;;;;;;;7.72;82.74;101134.66;5029953;28;20104;-74
2022/02/23 10:37:35;;;;;;;25.33;7.95;;;;;;;7.79;82.01;101125.16;4996979;28;20217;-74
2022/02/23 10:40:00;;;;;;;27.58;5.57;;;;;;;8.41;81.33;101140.03;5013267;28;20053;-74
2022/02/23 10:42:33;;;;;;;24.48;4.93;;;;;;;8.44;80.07;101067.91;4996873;28;20079;-74
2022/02/23 10:45:00;;;;;;;28.60;4.15;;;;;;;8.33;79.07;101008.66;5013222;28;20502;-74
2022/02/23 10:47:26;;;;;;;19.50;5.90;;;;;;;8.23;78.42;100995.34;5030912;28;20068;-74
2022/02/23 10:50:05;;;;;;;29.52;4.10;;;;;;;8.08;78.37;100991.44;5012694;28;20030;-74
2022/02/23 10:52:33;;;;;;;19.48;3.65;;;;;;;8.67;78.68;101104.88;5013048;28;20065;-74
2022/02/23 10:55:14;;;;;;;21.90;4.55;;;;;;;9.19;77.55;101073.38;5030810;28;20104;-74
2022/02/23 10:57:44;;;;;;;31.75;4.70;;;;;;;9.04;76.11;100965.63;5013046;28;20080;-74
2022/02/23 11:00:21;;;;;;;22.38;5.40;;;;;;;8.87;75.42;100938.81;4996539;28;20034;-74
2022/02/23 11:02:48;;;;;;;26.42;4.22;;;;;;;8.51;76.11;100939.63;5030513;28;20124;-74
2022/02/23 11:05:15;;;;;;;26.50;3.97;;;;;;;8.09;75.75;100882.28;5012729;28;20478;-74
2022/02/23 11:07:45;;;;;;;17.10;3.13;;;;;;;7.82;75.41;100865.25;5012959;28;20453;-74
2022/02/23 11:10:15;;;;;;;26.25;5.55;;;;;;;8.04;75.87;100946.50;4996326;28;20406;-74
2022/02/23 11:12:51;;;;;;;17.88;3.80;;;;;;;8.41;75.84;100966.25;5030380;28;20405;-74
2022/02/23 11:15:19;;;;;;;27.15;4.13;;;;;;;8.59;74.91;100929.94;5013102;28;20635;-74
2022/02/23 11:17:46;;;;;;;25.00;4.90;;;;;;;9.13;75.17;101030.47;5030273;28;20501;-74
2022/02/23 11:20:18;;;;;;;23.02;3.20;;;;;;;9.90;73.21;100999.88;5012723;28;20072;-74
2022/02/23 11:22:48;;;;;;;15.57;4.00;;;;;;;10.43;71.15;100912.81;5029085;28;20037;-74
2022/02/23 11:25:13;;;;;;;14.70;3.38;;;;;;;10.23;68.95;100746.69;5030551;28;20043;-74